Time,TemperatureF,DewpointF,PressureIn,WindDirection,WindDirectionDegrees,WindSpeedMPH,WindSpeedGustMPH,Humidity,HourlyPrecipIn,Conditions,Clouds,dailyrainin,SoftwareType,DateUTC
2013-09-16 00:01:00,48.1,46.2,30.32,NNE,14,0.0,0.0,93,0.00,,,0.00,vanprod-2.3,2013-09-16 05:01:00,
2013-09-16 00:06:00,48.0,46.1,30.32,NNE,14,0.0,0.0,93,0.00,,,0.00,vanprod-2.3,2013-09-16 05:06:00,
2013-09-16 00:11:00,47.8,45.9,30.32,NNE,14,0.0,0.0,93,0.00,,,0.00,vanprod-2.3,2013-09-16 05:11:00,
2013-09-16 00:16:00,47.7,45.8,30.32,NNE,14,0.0,0.0,93,0.00,,,0.00,vanprod-2.3,2013-09-16 05:16:00,
2013-09-16 00:21:00,47.5,45.9,30.32,NNE,14,0.0,0.0,94,0.00,,,0.00,vanprod-2.3,2013-09-16 05:21:00,
2013-09-16 00:26:00,47.2,45.6,30.32,NNE,14,0.0,0.0,94,0.00,,,0.00,vanprod-2.3,2013-09-16 05:26:00,
2013-09-16 00:31:00,47.1,45.5,30.32,NNE,14,0.0,0.0,94,0.00,,,0.00,vanprod-2.3,2013-09-16 05:31:00,
2013-09-16 00:36:00,47.1,45.7,30.32,NNE,14,0.0,0.0,95,0.00,,,0.00,vanprod-2.3,2013-09-16 05:36:00,
2013-09-16 00:41:00,46.9,45.5,30.32,NNE,14,0.0,0.0,95,0.00,,,0.00,vanprod-2.3,2013-09-16 05:41:00,
2013-09-16 00:46:00,46.8,45.4,30.32,NNE,14,0.0,0.0,95,0.00,,,0.00,vanprod-2.3,2013-09-16 05:46:00,
2013-09-16 00:51:00,46.6,45.2,30.32,NNE,14,0.0,0.0,95,0.00,,,0.00,vanprod-2.3,2013-09-16 05:51:00,
2013-09-16 00:56:00,46.5,45.1,30.32,NNE,14,0.0,0.0,95,0.00,,,0.00,vanprod-2.3,2013-09-16 05:56:00,
2013-09-16 01:01:00,46.3,44.9,30.33,NNE,14,0.0,0.0,95,0.00,,,0.00,vanprod-2.3,2013-09-16 06:01:00,
2013-09-16 01:06:00,46.3,44.9,30.33,NNE,14,0.0,0.0,95,0.00,,,0.00,vanprod-2.3,2013-09-16 06:06:00,
2013-09-16 01:11:00,46.2,44.9,30.33,NNE,14,0.0,0.0,95,0.00,,,0.00,vanprod-2.3,2013-09-16 06:11:00,
2013-09-16 01:16:00,46.2,45.1,30.33,NNE,14,0.0,0.0,96,0.00,,,0.00,vanprod-2.3,2013-09-16 06:16:00,
2013-09-16 01:21:00,46.2,45.1,30.33,NNE,14,0.0,0.0,96,0.00,,,0.00,vanprod-2.3,2013-09-16 06:21:00,
2013-09-16 01:26:00,46.3,45.2,30.33,NNE,14,0.0,0.0,96,0.00,,,0.00,vanprod-2.3,2013-09-16 06:26:00,
2013-09-16 01:31:00,46.3,45.2,30.34,NNE,14,0.0,0.0,96,0.00,,,0.00,vanprod-2.3,2013-09-16 06:31:00,
2013-09-16 01:36:00,46.3,45.2,30.34,NNE,14,0.0,0.0,96,0.00,,,0.00,vanprod-2.3,2013-09-16 06:36:00,
2013-09-16 01:41:00,46.5,45.4,30.34,NNE,14,0.0,0.0,96,0.00,,,0.00,vanprod-2.3,2013-09-16 06:41:00,
2013-09-16 01:46:00,46.6,45.8,30.34,NNE,14,0.0,0.0,97,0.00,,,0.00,vanprod-2.3,2013-09-16 06:46:00,
2013-09-16 01:51:00,46.8,46.0,30.34,NNE,14,0.0,0.0,97,0.00,,,0.00,vanprod-2.3,2013-09-16 06:51:00,
2013-09-16 01:56:00,46.9,46.1,30.34,NNE,14,0.0,0.0,97,0.00,,,0.00,vanprod-2.3,2013-09-16 06:56:00,
2013-09-16 02:01:00,47.2,46.4,30.34,NNE,14,0.0,0.0,97,0.00,,,0.00,vanprod-2.3,2013-09-16 07:01:00,
2013-09-16 02:06:00,47.4,46.6,30.34,NNE,14,0.0,0.0,97,0.00,,,0.00,vanprod-2.3,2013-09-16 07:06:00,
2013-09-16 02:11:00,47.5,46.7,30.34,NNE,14,0.0,0.0,97,0.00,,,0.00,vanprod-2.3,2013-09-16 07:11:00,
2013-09-16 02:16:00,47.5,46.7,30.34,NNE,14,0.0,0.0,97,0.00,,,0.00,vanprod-2.3,2013-09-16 07:16:00,
2013-09-16 02:21:00,47.4,46.6,30.34,NNE,14,0.0,0.0,97,0.00,,,0.00,vanprod-2.3,2013-09-16 07:21:00,
2013-09-16 02:26:00,47.4,46.6,30.34,NNE,14,0.0,0.0,97,0.00,,,0.00,vanprod-2.3,2013-09-16 07:26:00,
2013-09-16 02:31:00,47.4,46.6,30.34,NNE,14,0.0,0.0,97,0.00,,,0.00,vanprod-2.3,2013-09-16 07:31:00,
2013-09-16 02:36:00,47.4,46.6,30.34,NNE,14,0.0,0.0,97,0.00,,,0.00,vanprod-2.3,2013-09-16 07:36:00,
2013-09-16 02:41:00,47.4,46.6,30.34,NNE,14,0.0,0.0,97,0.00,,,0.00,vanprod-2.3,2013-09-16 07:41:00,
2013-09-16 02:46:00,47.5,46.7,30.34,NNE,14,0.0,0.0,97,0.00,,,0.00,vanprod-2.3,2013-09-16 07:46:00,
2013-09-16 02:51:00,47.5,46.7,30.34,NNE,14,0.0,0.0,97,0.00,,,0.00,vanprod-2.3,2013-09-16 07:51:00,
2013-09-16 02:56:00,47.5,46.4,30.35,NNE,14,0.0,0.0,96,0.00,,,0.00,vanprod-2.3,2013-09-16 07:56:00,
2013-09-16 03:01:00,47.5,46.4,30.35,NNE,14,0.0,0.0,96,0.00,,,0.00,vanprod-2.3,2013-09-16 08:01:00,
2013-09-16 03:06:00,47.5,46.4,30.35,NNE,14,0.0,0.0,96,0.00,,,0.00,vanprod-2.3,2013-09-16 08:06:00,
2013-09-16 03:11:00,47.5,46.4,30.35,NNE,14,0.0,0.0,96,0.00,,,0.00,vanprod-2.3,2013-09-16 08:11:00,
2013-09-16 03:16:00,47.4,46.3,30.35,NNE,14,0.0,0.0,96,0.00,,,0.00,vanprod-2.3,2013-09-16 08:16:00,
2013-09-16 03:21:00,47.4,46.3,30.35,NNE,14,0.0,0.0,96,0.00,,,0.00,vanprod-2.3,2013-09-16 08:21:00,
2013-09-16 03:26:00,47.4,46.3,30.35,NNE,14,0.0,0.0,96,0.00,,,0.00,vanprod-2.3,2013-09-16 08:26:00,
2013-09-16 03:31:00,47.4,46.3,30.35,NNE,14,0.0,0.0,96,0.00,,,0.00,vanprod-2.3,2013-09-16 08:31:00,
2013-09-16 03:36:00,47.4,46.3,30.35,NNE,14,0.0,0.0,96,0.00,,,0.00,vanprod-2.3,2013-09-16 08:36:00,
2013-09-16 03:41:00,47.4,46.3,30.35,NNE,14,0.0,0.0,96,0.00,,,0.00,vanprod-2.3,2013-09-16 08:41:00,
2013-09-16 03:46:00,47.4,46.3,30.35,NNE,14,0.0,0.0,96,0.00,,,0.00,vanprod-2.3,2013-09-16 08:46:00,
2013-09-16 03:51:00,47.4,46.3,30.35,NNE,14,0.0,0.0,96,0.00,,,0.00,vanprod-2.3,2013-09-16 08:51:00,
2013-09-16 03:56:00,47.4,46.3,30.35,NNE,14,0.0,0.0,96,0.00,,,0.00,vanprod-2.3,2013-09-16 08:56:00,
2013-09-16 04:01:00,47.4,46.3,30.35,NNE,14,0.0,0.0,96,0.00,,,0.00,vanprod-2.3,2013-09-16 09:01:00,
2013-09-16 04:06:00,47.4,46.3,30.35,NNE,14,0.0,0.0,96,0.00,,,0.00,vanprod-2.3,2013-09-16 09:06:00,
2013-09-16 04:11:00,47.2,46.1,30.35,NNE,14,0.0,0.0,96,0.00,,,0.00,vanprod-2.3,2013-09-16 09:11:00,
2013-09-16 04:16:00,47.2,46.1,30.35,NNE,14,0.0,0.0,96,0.00,,,0.00,vanprod-2.3,2013-09-16 09:16:00,
2013-09-16 04:21:00,47.2,46.1,30.35,NNE,14,0.0,0.0,96,0.00,,,0.00,vanprod-2.3,2013-09-16 09:21:00,
2013-09-16 04:26:00,47.2,46.1,30.35,NNE,14,0.0,0.0,96,0.00,,,0.00,vanprod-2.3,2013-09-16 09:26:00,
2013-09-16 04:31:00,47.2,46.1,30.35,NNE,14,0.0,0.0,96,0.00,,,0.00,vanprod-2.3,2013-09-16 09:31:00,
2013-09-16 04:36:00,47.2,46.1,30.35,NNE,14,0.0,0.0,96,0.00,,,0.00,vanprod-2.3,2013-09-16 09:36:00,
2013-09-16 04:41:00,47.1,46.0,30.36,NNE,14,0.0,0.0,96,0.00,,,0.00,vanprod-2.3,2013-09-16 09:41:00,
2013-09-16 04:46:00,47.1,46.0,30.36,NNE,14,0.0,0.0,96,0.00,,,0.00,vanprod-2.3,2013-09-16 09:46:00,
2013-09-16 04:51:00,46.9,45.8,30.36,NNE,14,0.0,0.0,96,0.00,,,0.00,vanprod-2.3,2013-09-16 09:51:00,
2013-09-16 04:56:00,46.8,45.7,30.36,NNE,14,0.0,0.0,96,0.00,,,0.00,vanprod-2.3,2013-09-16 09:56:00,
2013-09-16 05:01:00,46.6,45.5,30.36,NNE,14,0.0,0.0,96,0.00,,,0.00,vanprod-2.3,2013-09-16 10:01:00,
2013-09-16 05:06:00,46.5,45.4,30.36,NNE,14,0.0,0.0,96,0.00,,,0.00,vanprod-2.3,2013-09-16 10:06:00,
2013-09-16 05:11:00,46.3,45.2,30.36,NNE,14,0.0,0.0,96,0.00,,,0.00,vanprod-2.3,2013-09-16 10:11:00,
2013-09-16 05:16:00,46.3,45.2,30.36,NNE,14,0.0,0.0,96,0.00,,,0.00,vanprod-2.3,2013-09-16 10:16:00,
2013-09-16 05:21:00,46.2,45.1,30.36,NNE,14,0.0,0.0,96,0.00,,,0.00,vanprod-2.3,2013-09-16 10:21:00,
2013-09-16 05:26:00,46.0,44.9,30.36,NNE,14,0.0,0.0,96,0.00,,,0.00,vanprod-2.3,2013-09-16 10:26:00,
2013-09-16 05:31:00,46.0,44.9,30.36,NNE,14,0.0,0.0,96,0.00,,,0.00,vanprod-2.3,2013-09-16 10:31:00,
2013-09-16 05:36:00,45.9,44.8,30.35,NNE,14,0.0,0.0,96,0.00,,,0.00,vanprod-2.3,2013-09-16 10:36:00,
2013-09-16 05:41:00,45.6,44.5,30.36,NNE,14,0.0,0.0,96,0.00,,,0.00,vanprod-2.3,2013-09-16 10:41:00,
2013-09-16 05:46:00,45.5,44.4,30.36,NNE,14,0.0,0.0,96,0.00,,,0.00,vanprod-2.3,2013-09-16 10:46:00,
2013-09-16 05:51:00,45.3,44.2,30.36,NNE,14,0.0,0.0,96,0.00,,,0.00,vanprod-2.3,2013-09-16 10:51:00,
2013-09-16 05:56:00,45.2,44.1,30.36,NNE,14,0.0,0.0,96,0.00,,,0.00,vanprod-2.3,2013-09-16 10:56:00,
2013-09-16 06:01:00,45.0,43.9,30.36,NNE,14,0.0,0.0,96,0.00,,,0.00,vanprod-2.3,2013-09-16 11:01:00,
2013-09-16 06:06:00,44.9,43.8,30.36,NNE,14,0.0,0.0,96,0.00,,,0.00,vanprod-2.3,2013-09-16 11:06:00,
2013-09-16 06:11:00,44.9,43.8,30.36,NNE,14,0.0,0.0,96,0.00,,,0.00,vanprod-2.3,2013-09-16 11:11:00,
2013-09-16 06:16:00,44.9,43.8,30.36,NNE,14,0.0,0.0,96,0.00,,,0.00,vanprod-2.3,2013-09-16 11:16:00,
2013-09-16 06:21:00,44.9,43.8,30.36,NNE,14,0.0,0.0,96,0.00,,,0.00,vanprod-2.3,2013-09-16 11:21:00,
2013-09-16 06:26:00,44.7,43.9,30.37,NNE,14,0.0,0.0,97,0.00,,,0.00,vanprod-2.3,2013-09-16 11:26:00,
2013-09-16 06:31:00,44.7,43.9,30.36,NNE,14,0.0,0.0,97,0.00,,,0.00,vanprod-2.3,2013-09-16 11:31:00,
2013-09-16 06:36:00,44.7,43.9,30.37,NNE,14,0.0,0.0,97,0.00,,,0.00,vanprod-2.3,2013-09-16 11:36:00,
2013-09-16 06:41:00,44.6,43.8,30.37,NNE,14,0.0,0.0,97,0.00,,,0.00,vanprod-2.3,2013-09-16 11:41:00,
2013-09-16 06:46:00,44.4,43.3,30.37,NNE,14,0.0,0.0,96,0.00,,,0.00,vanprod-2.3,2013-09-16 11:46:00,
2013-09-16 06:51:00,44.3,43.2,30.37,NNE,14,0.0,0.0,96,0.00,,,0.00,vanprod-2.3,2013-09-16 11:51:00,
2013-09-16 06:56:00,44.1,43.3,30.37,NNE,14,0.0,0.0,97,0.00,,,0.00,vanprod-2.3,2013-09-16 11:56:00,
2013-09-16 07:01:00,44.1,43.3,30.37,NNE,14,0.0,0.0,97,0.00,,,0.00,vanprod-2.3,2013-09-16 12:01:00,
2013-09-16 07:06:00,44.3,43.5,30.37,NNE,14,0.0,0.0,97,0.00,,,0.00,vanprod-2.3,2013-09-16 12:06:00,
2013-09-16 07:11:00,44.3,43.5,30.37,NNE,14,0.0,0.0,97,0.00,,,0.00,vanprod-2.3,2013-09-16 12:11:00,
2013-09-16 07:16:00,44.6,43.8,30.37,NNE,14,0.0,0.0,97,0.00,,,0.00,vanprod-2.3,2013-09-16 12:16:00,
2013-09-16 07:21:00,44.7,43.9,30.37,NNE,14,0.0,0.0,97,0.00,,,0.00,vanprod-2.3,2013-09-16 12:21:00,
2013-09-16 07:26:00,44.9,44.1,30.37,NNE,14,0.0,0.0,97,0.00,,,0.00,vanprod-2.3,2013-09-16 12:26:00,
2013-09-16 07:31:00,45.0,44.5,30.37,NNE,14,0.0,0.0,98,0.00,,,0.00,vanprod-2.3,2013-09-16 12:31:00,
2013-09-16 07:36:00,45.3,44.8,30.37,NNE,14,0.0,0.0,98,0.00,,,0.00,vanprod-2.3,2013-09-16 12:36:00,
2013-09-16 07:41:00,45.6,45.1,30.37,NNE,14,0.0,0.0,98,0.00,,,0.00,vanprod-2.3,2013-09-16 12:41:00,
2013-09-16 07:46:00,45.7,45.2,30.37,NNE,14,0.0,0.0,98,0.00,,,0.00,vanprod-2.3,2013-09-16 12:46:00,
2013-09-16 07:51:00,46.0,45.5,30.38,NNE,14,0.0,0.0,98,0.00,,,0.00,vanprod-2.3,2013-09-16 12:51:00,
2013-09-16 07:56:00,46.3,45.8,30.38,NNE,14,0.0,0.0,98,0.00,,,0.00,vanprod-2.3,2013-09-16 12:56:00,
2013-09-16 08:01:00,46.6,46.1,30.38,NNE,14,0.0,2.0,98,0.00,,,0.00,vanprod-2.3,2013-09-16 13:01:00,
2013-09-16 08:06:00,46.9,46.1,30.38,NNE,14,0.0,2.0,97,0.00,,,0.00,vanprod-2.3,2013-09-16 13:06:00,
2013-09-16 08:11:00,47.1,46.3,30.38,NNE,14,0.0,0.0,97,0.00,,,0.00,vanprod-2.3,2013-09-16 13:11:00,
2013-09-16 08:16:00,47.1,46.3,30.38,NNE,14,0.0,1.0,97,0.00,,,0.00,vanprod-2.3,2013-09-16 13:16:00,
2013-09-16 08:21:00,47.2,46.4,30.38,NNE,14,0.0,0.0,97,0.00,,,0.00,vanprod-2.3,2013-09-16 13:21:00,
2013-09-16 08:26:00,47.4,46.3,30.37,NNE,14,0.0,0.0,96,0.00,,,0.00,vanprod-2.3,2013-09-16 13:26:00,
2013-09-16 08:31:00,47.5,46.4,30.38,NNE,14,0.0,0.0,96,0.00,,,0.00,vanprod-2.3,2013-09-16 13:31:00,
2013-09-16 08:36:00,47.8,46.4,30.38,NNE,14,0.0,1.0,95,0.00,,,0.00,vanprod-2.3,2013-09-16 13:36:00,
2013-09-16 08:41:00,48.0,46.1,30.38,NNE,14,0.0,0.0,93,0.00,,,0.00,vanprod-2.3,2013-09-16 13:41:00,
2013-09-16 08:46:00,48.3,45.8,30.38,NNE,14,0.0,0.0,91,0.00,,,0.00,vanprod-2.3,2013-09-16 13:46:00,
2013-09-16 08:51:00,48.6,45.2,30.38,NNE,14,0.0,1.0,88,0.00,,,0.00,vanprod-2.3,2013-09-16 13:51:00,
2013-09-16 08:56:00,49.0,45.0,30.38,NNE,14,1.0,0.0,86,0.00,,,0.00,vanprod-2.3,2013-09-16 13:56:00,
2013-09-16 09:01:00,49.3,44.4,30.39,NNE,14,2.0,2.0,83,0.00,,,0.00,vanprod-2.3,2013-09-16 14:01:00,
2013-09-16 09:06:00,49.6,44.3,30.39,NNE,14,0.0,0.0,82,0.00,,,0.00,vanprod-2.3,2013-09-16 14:06:00,
2013-09-16 09:11:00,49.9,44.3,30.39,NNE,16,0.0,0.0,81,0.00,,,0.00,vanprod-2.3,2013-09-16 14:11:00,
2013-09-16 09:16:00,50.2,44.9,30.39,NNE,16,0.0,0.0,82,0.00,,,0.00,vanprod-2.3,2013-09-16 14:16:00,
2013-09-16 09:21:00,50.5,44.9,30.38,NNE,16,0.0,0.0,81,0.00,,,0.00,vanprod-2.3,2013-09-16 14:21:00,
2013-09-16 09:26:00,50.6,44.0,30.38,NNE,16,1.0,3.0,78,0.00,,,0.00,vanprod-2.3,2013-09-16 14:26:00,
2013-09-16 09:31:00,50.6,44.0,30.38,NNE,16,1.0,0.0,78,0.00,,,0.00,vanprod-2.3,2013-09-16 14:31:00,
2013-09-16 09:36:00,50.8,43.9,30.38,NNE,16,0.0,0.0,77,0.00,,,0.00,vanprod-2.3,2013-09-16 14:36:00,
2013-09-16 09:41:00,50.8,43.9,30.38,NNE,16,0.0,0.0,77,0.00,,,0.00,vanprod-2.3,2013-09-16 14:41:00,
2013-09-16 09:46:00,50.9,43.6,30.38,NNE,16,1.0,2.0,76,0.00,,,0.00,vanprod-2.3,2013-09-16 14:46:00,
2013-09-16 09:51:00,50.9,43.6,30.38,NNE,23,0.0,1.0,76,0.00,,,0.00,vanprod-2.3,2013-09-16 14:51:00,
2013-09-16 09:56:00,51.2,43.2,30.38,NNE,24,0.0,1.0,74,0.00,,,0.00,vanprod-2.3,2013-09-16 14:56:00,
2013-09-16 10:01:00,51.5,43.8,30.38,NNE,24,0.0,0.0,75,0.00,,,0.00,vanprod-2.3,2013-09-16 15:01:00,
2013-09-16 10:06:00,51.8,43.8,30.38,NNE,24,0.0,0.0,74,0.00,,,0.00,vanprod-2.3,2013-09-16 15:06:00,
2013-09-16 10:11:00,52.1,43.7,30.38,NNE,24,0.0,1.0,73,0.00,,,0.00,vanprod-2.3,2013-09-16 15:11:00,
2013-09-16 10:16:00,52.3,44.3,30.38,NNE,23,1.0,0.0,74,0.00,,,0.00,vanprod-2.3,2013-09-16 15:16:00,
2013-09-16 10:21:00,52.6,44.6,30.38,NNE,23,0.0,1.0,74,0.00,,,0.00,vanprod-2.3,2013-09-16 15:21:00,
2013-09-16 10:26:00,52.7,43.6,30.38,NNE,23,0.0,5.0,71,0.00,,,0.00,vanprod-2.3,2013-09-16 15:26:00,
2013-09-16 10:31:00,53.0,44.2,30.38,NNE,24,0.0,0.0,72,0.00,,,0.00,vanprod-2.3,2013-09-16 15:31:00,
2013-09-16 10:36:00,53.3,44.1,30.38,NNE,24,0.0,0.0,71,0.00,,,0.00,vanprod-2.3,2013-09-16 15:36:00,
2013-09-16 10:41:00,53.4,43.9,30.37,NNE,23,0.0,0.0,70,0.00,,,0.00,vanprod-2.3,2013-09-16 15:41:00,
2013-09-16 10:46:00,53.6,44.1,30.37,NNE,24,0.0,0.0,70,0.00,,,0.00,vanprod-2.3,2013-09-16 15:46:00,
2013-09-16 10:51:00,53.9,43.6,30.37,NNE,24,0.0,1.0,68,0.00,,,0.00,vanprod-2.3,2013-09-16 15:51:00,
2013-09-16 10:56:00,53.9,43.6,30.37,NNE,24,0.0,3.0,68,0.00,,,0.00,vanprod-2.3,2013-09-16 15:56:00,
2013-09-16 11:01:00,54.2,44.6,30.37,NNE,24,1.0,1.0,70,0.00,,,0.00,vanprod-2.3,2013-09-16 16:01:00,
2013-09-16 11:06:00,54.8,44.8,30.37,NNE,25,1.0,3.0,69,0.00,,,0.00,vanprod-2.3,2013-09-16 16:06:00,
2013-09-16 11:11:00,55.5,44.3,30.37,NNE,27,0.0,2.0,66,0.00,,,0.00,vanprod-2.3,2013-09-16 16:11:00,
2013-09-16 11:16:00,55.8,44.6,30.37,NNE,27,1.0,0.0,66,0.00,,,0.00,vanprod-2.3,2013-09-16 16:16:00,
2013-09-16 11:21:00,56.0,44.8,30.37,NNE,27,1.0,1.0,66,0.00,,,0.00,vanprod-2.3,2013-09-16 16:21:00,
2013-09-16 11:26:00,56.0,45.2,30.37,NNE,27,0.0,0.0,67,0.00,,,0.00,vanprod-2.3,2013-09-16 16:26:00,
2013-09-16 11:31:00,56.2,45.0,30.37,NNE,27,1.0,0.0,66,0.00,,,0.00,vanprod-2.3,2013-09-16 16:31:00,
2013-09-16 11:36:00,57.0,45.8,30.37,NNE,27,1.0,1.0,66,0.00,,,0.00,vanprod-2.3,2013-09-16 16:36:00,
2013-09-16 11:41:00,57.6,45.5,30.37,NNE,27,0.0,0.0,64,0.00,,,0.00,vanprod-2.3,2013-09-16 16:41:00,
2013-09-16 11:46:00,58.4,45.4,30.37,NNE,27,0.0,0.0,62,0.00,,,0.00,vanprod-2.3,2013-09-16 16:46:00,
2013-09-16 11:51:00,58.5,45.5,30.36,NNE,27,1.0,0.0,62,0.00,,,0.00,vanprod-2.3,2013-09-16 16:51:00,
2013-09-16 11:56:00,58.8,45.8,30.36,NNE,30,0.0,2.0,62,0.00,,,0.00,vanprod-2.3,2013-09-16 16:56:00,
2013-09-16 12:01:00,59.4,46.0,30.36,NNE,30,0.0,1.0,61,0.00,,,0.00,vanprod-2.3,2013-09-16 17:01:00,
2013-09-16 12:06:00,59.7,45.8,30.36,NNE,30,1.0,1.0,60,0.00,,,0.00,vanprod-2.3,2013-09-16 17:06:00,
2013-09-16 12:11:00,59.7,46.2,30.36,NNE,30,1.0,1.0,61,0.00,,,0.00,vanprod-2.3,2013-09-16 17:11:00,
2013-09-16 12:16:00,60.4,46.9,30.35,NNE,30,0.0,0.0,61,0.00,,,0.00,vanprod-2.3,2013-09-16 17:16:00,
2013-09-16 12:21:00,60.7,47.2,30.35,NNE,30,0.0,0.0,61,0.00,,,0.00,vanprod-2.3,2013-09-16 17:21:00,
2013-09-16 12:26:00,61.3,46.9,30.36,NNE,30,0.0,0.0,59,0.00,,,0.00,vanprod-2.3,2013-09-16 17:26:00,
2013-09-16 12:31:00,61.9,47.0,30.36,NNE,30,0.0,0.0,58,0.00,,,0.00,vanprod-2.3,2013-09-16 17:31:00,
2013-09-16 12:36:00,62.2,46.8,30.35,NNE,30,0.0,0.0,57,0.00,,,0.00,vanprod-2.3,2013-09-16 17:36:00,
2013-09-16 12:41:00,62.9,47.0,30.35,NNE,30,0.0,0.0,56,0.00,,,0.00,vanprod-2.3,2013-09-16 17:41:00,
2013-09-16 12:46:00,63.5,47.1,30.35,NNE,30,0.0,0.0,55,0.00,,,0.00,vanprod-2.3,2013-09-16 17:46:00,
2013-09-16 12:51:00,63.4,46.0,30.35,NNE,30,1.0,1.0,53,0.00,,,0.00,vanprod-2.3,2013-09-16 17:51:00,
2013-09-16 12:56:00,63.8,46.4,30.34,NNE,30,0.0,0.0,53,0.00,,,0.00,vanprod-2.3,2013-09-16 17:56:00,
2013-09-16 13:01:00,64.2,46.2,30.34,NNE,30,0.0,0.0,52,0.00,,,0.00,vanprod-2.3,2013-09-16 18:01:00,
2013-09-16 13:06:00,64.2,45.7,30.34,NNE,30,1.0,1.0,51,0.00,,,0.00,vanprod-2.3,2013-09-16 18:06:00,
2013-09-16 13:11:00,64.0,45.0,30.34,NE,35,3.0,4.0,50,0.00,,,0.00,vanprod-2.3,2013-09-16 18:11:00,
2013-09-16 13:16:00,63.7,45.8,30.34,NE,35,1.0,0.0,52,0.00,,,0.00,vanprod-2.3,2013-09-16 18:16:00,
2013-09-16 13:21:00,63.7,45.3,30.34,NE,35,1.0,0.0,51,0.00,,,0.00,vanprod-2.3,2013-09-16 18:21:00,
2013-09-16 13:26:00,64.0,43.9,30.34,NE,35,0.0,0.0,48,0.00,,,0.00,vanprod-2.3,2013-09-16 18:26:00,
2013-09-16 13:31:00,64.5,45.5,30.33,NE,35,1.0,0.0,50,0.00,,,0.00,vanprod-2.3,2013-09-16 18:31:00,
2013-09-16 13:36:00,64.7,45.7,30.33,NE,37,1.0,4.0,50,0.00,,,0.00,vanprod-2.3,2013-09-16 18:36:00,
2013-09-16 13:41:00,65.0,43.2,30.33,NE,47,0.0,0.0,45,0.00,,,0.00,vanprod-2.3,2013-09-16 18:41:00,
2013-09-16 13:46:00,65.3,45.1,30.33,ENE,58,1.0,3.0,48,0.00,,,0.00,vanprod-2.3,2013-09-16 18:46:00,
2013-09-16 13:51:00,65.3,45.1,30.32,ENE,59,1.0,1.0,48,0.00,,,0.00,vanprod-2.3,2013-09-16 18:51:00,
2013-09-16 13:56:00,65.6,44.3,30.32,ENE,59,0.0,2.0,46,0.00,,,0.00,vanprod-2.3,2013-09-16 18:56:00,
2013-09-16 14:01:00,65.1,44.4,30.32,ENE,59,0.0,0.0,47,0.00,,,0.00,vanprod-2.3,2013-09-16 19:01:00,
2013-09-16 14:06:00,65.3,45.1,30.31,ENE,62,0.0,0.0,48,0.00,,,0.00,vanprod-2.3,2013-09-16 19:06:00,
2013-09-16 14:11:00,65.6,44.3,30.31,ENE,62,2.0,0.0,46,0.00,,,0.00,vanprod-2.3,2013-09-16 19:11:00,
2013-09-16 14:16:00,65.3,43.4,30.31,ENE,62,1.0,0.0,45,0.00,,,0.00,vanprod-2.3,2013-09-16 19:16:00,
2013-09-16 14:21:00,65.6,43.7,30.31,ENE,62,0.0,2.0,45,0.00,,,0.00,vanprod-2.3,2013-09-16 19:21:00,
2013-09-16 14:26:00,65.9,43.4,30.30,ENE,62,1.0,1.0,44,0.00,,,0.00,vanprod-2.3,2013-09-16 19:26:00,
2013-09-16 14:31:00,66.3,44.3,30.30,ENE,62,1.0,1.0,45,0.00,,,0.00,vanprod-2.3,2013-09-16 19:31:00,
2013-09-16 14:36:00,66.1,42.4,30.30,ENE,68,1.0,1.0,42,0.00,,,0.00,vanprod-2.3,2013-09-16 19:36:00,
2013-09-16 14:41:00,66.6,45.2,30.30,ENE,68,1.0,3.0,46,0.00,,,0.00,vanprod-2.3,2013-09-16 19:41:00,
2013-09-16 14:46:00,66.4,43.2,30.29,ENE,68,2.0,0.0,43,0.00,,,0.00,vanprod-2.3,2013-09-16 19:46:00,
2013-09-16 14:51:00,66.3,44.3,30.29,ENE,68,0.0,1.0,45,0.00,,,0.00,vanprod-2.3,2013-09-16 19:51:00,
2013-09-16 14:56:00,65.9,42.8,30.29,ENE,68,1.0,1.0,43,0.00,,,0.00,vanprod-2.3,2013-09-16 19:56:00,
2013-09-16 15:01:00,65.9,44.6,30.29,ENE,68,1.0,1.0,46,0.00,,,0.00,vanprod-2.3,2013-09-16 20:01:00,
2013-09-16 15:06:00,65.9,42.8,30.28,East,93,1.0,1.0,43,0.00,,,0.00,vanprod-2.3,2013-09-16 20:06:00,
2013-09-16 15:11:00,65.8,42.7,30.28,East,96,0.0,0.0,43,0.00,,,0.00,vanprod-2.3,2013-09-16 20:11:00,
2013-09-16 15:16:00,65.9,43.4,30.28,East,96,1.0,0.0,44,0.00,,,0.00,vanprod-2.3,2013-09-16 20:16:00,
2013-09-16 15:21:00,65.9,42.2,30.28,East,96,1.0,0.0,42,0.00,,,0.00,vanprod-2.3,2013-09-16 20:21:00,
2013-09-16 15:26:00,65.8,43.9,30.28,East,96,1.0,0.0,45,0.00,,,0.00,vanprod-2.3,2013-09-16 20:26:00,
2013-09-16 15:31:00,65.8,43.9,30.27,East,96,1.0,1.0,45,0.00,,,0.00,vanprod-2.3,2013-09-16 20:31:00,
2013-09-16 15:36:00,65.9,43.4,30.27,East,96,0.0,0.0,44,0.00,,,0.00,vanprod-2.3,2013-09-16 20:36:00,
2013-09-16 15:41:00,65.9,44.0,30.27,East,96,1.0,0.0,45,0.00,,,0.00,vanprod-2.3,2013-09-16 20:41:00,
2013-09-16 15:46:00,65.9,43.4,30.27,ESE,113,0.0,0.0,44,0.00,,,0.00,vanprod-2.3,2013-09-16 20:46:00,
2013-09-16 15:51:00,66.3,44.3,30.26,ESE,113,0.0,0.0,45,0.00,,,0.00,vanprod-2.3,2013-09-16 20:51:00,
2013-09-16 15:56:00,66.6,44.0,30.26,ESE,113,0.0,5.0,44,0.00,,,0.00,vanprod-2.3,2013-09-16 20:56:00,
2013-09-16 16:01:00,66.4,42.6,30.26,ESE,113,1.0,0.0,42,0.00,,,0.00,vanprod-2.3,2013-09-16 21:01:00,
2013-09-16 16:06:00,66.1,42.4,30.26,ESE,113,0.0,0.0,42,0.00,,,0.00,vanprod-2.3,2013-09-16 21:06:00,
2013-09-16 16:11:00,66.3,41.9,30.26,ESE,113,0.0,0.0,41,0.00,,,0.00,vanprod-2.3,2013-09-16 21:11:00,
2013-09-16 16:16:00,66.6,43.4,30.26,ESE,113,0.0,0.0,43,0.00,,,0.00,vanprod-2.3,2013-09-16 21:16:00,
2013-09-16 16:21:00,66.8,41.7,30.26,ESE,113,0.0,0.0,40,0.00,,,0.00,vanprod-2.3,2013-09-16 21:21:00,
2013-09-16 16:26:00,66.6,42.8,30.26,ESE,113,1.0,0.0,42,0.00,,,0.00,vanprod-2.3,2013-09-16 21:26:00,
2013-09-16 16:31:00,66.8,41.7,30.25,ESE,113,1.0,1.0,40,0.00,,,0.00,vanprod-2.3,2013-09-16 21:31:00,
2013-09-16 16:36:00,66.9,41.8,30.25,ESE,113,0.0,2.0,40,0.00,,,0.00,vanprod-2.3,2013-09-16 21:36:00,
2013-09-16 16:41:00,67.1,44.5,30.25,ESE,113,1.0,1.0,44,0.00,,,0.00,vanprod-2.3,2013-09-16 21:41:00,
2013-09-16 16:46:00,67.1,43.3,30.25,ESE,113,1.0,0.0,42,0.00,,,0.00,vanprod-2.3,2013-09-16 21:46:00,
2013-09-16 16:51:00,67.1,42.6,30.25,ESE,113,1.0,0.0,41,0.00,,,0.00,vanprod-2.3,2013-09-16 21:51:00,
2013-09-16 16:56:00,67.3,43.4,30.25,ESE,114,1.0,2.0,42,0.00,,,0.00,vanprod-2.3,2013-09-16 21:56:00,
2013-09-16 17:01:00,66.9,43.7,30.24,ESE,120,0.0,0.0,43,0.00,,,0.00,vanprod-2.3,2013-09-16 22:01:00,
2013-09-16 17:06:00,66.8,43.0,30.24,ESE,120,0.0,0.0,42,0.00,,,0.00,vanprod-2.3,2013-09-16 22:06:00,
2013-09-16 17:11:00,66.6,41.5,30.24,ESE,120,1.0,0.0,40,0.00,,,0.00,vanprod-2.3,2013-09-16 22:11:00,
2013-09-16 17:16:00,66.4,41.4,30.24,ESE,120,2.0,0.0,40,0.00,,,0.00,vanprod-2.3,2013-09-16 22:16:00,
2013-09-16 17:21:00,66.4,42.0,30.23,ESE,120,0.0,1.0,41,0.00,,,0.00,vanprod-2.3,2013-09-16 22:21:00,
2013-09-16 17:26:00,66.1,41.7,30.23,ESE,120,1.0,0.0,41,0.00,,,0.00,vanprod-2.3,2013-09-16 22:26:00,
2013-09-16 17:31:00,65.9,42.2,30.23,ESE,120,0.0,0.0,42,0.00,,,0.00,vanprod-2.3,2013-09-16 22:31:00,
2013-09-16 17:36:00,65.8,43.3,30.23,ESE,120,0.0,0.0,44,0.00,,,0.00,vanprod-2.3,2013-09-16 22:36:00,
2013-09-16 17:41:00,65.8,42.7,30.23,ESE,120,0.0,2.0,43,0.00,,,0.00,vanprod-2.3,2013-09-16 22:41:00,
2013-09-16 17:46:00,65.6,43.1,30.23,ESE,120,0.0,0.0,44,0.00,,,0.00,vanprod-2.3,2013-09-16 22:46:00,
2013-09-16 17:51:00,65.6,43.1,30.23,ESE,120,0.0,0.0,44,0.00,,,0.00,vanprod-2.3,2013-09-16 22:51:00,
2013-09-16 17:56:00,65.5,43.0,30.22,ESE,120,1.0,0.0,44,0.00,,,0.00,vanprod-2.3,2013-09-16 22:56:00,
2013-09-16 18:01:00,65.3,42.9,30.22,ESE,120,1.0,0.0,44,0.00,,,0.00,vanprod-2.3,2013-09-16 23:01:00,
2013-09-16 18:06:00,65.3,42.9,30.22,ESE,120,1.0,0.0,44,0.00,,,0.00,vanprod-2.3,2013-09-16 23:06:00,
2013-09-16 18:11:00,65.5,43.6,30.22,ESE,120,0.0,0.0,45,0.00,,,0.00,vanprod-2.3,2013-09-16 23:11:00,
2013-09-16 18:16:00,65.5,44.2,30.21,ESE,120,0.0,0.0,46,0.00,,,0.00,vanprod-2.3,2013-09-16 23:16:00,
2013-09-16 18:21:00,65.5,44.2,30.21,ESE,120,1.0,1.0,46,0.00,,,0.00,vanprod-2.3,2013-09-16 23:21:00,
2013-09-16 18:26:00,65.3,44.6,30.21,ESE,120,0.0,0.0,47,0.00,,,0.00,vanprod-2.3,2013-09-16 23:26:00,
2013-09-16 18:31:00,65.1,45.5,30.21,ESE,120,0.0,0.0,49,0.00,,,0.00,vanprod-2.3,2013-09-16 23:31:00,
2013-09-16 18:36:00,65.0,45.9,30.21,ESE,120,0.0,0.0,50,0.00,,,0.00,vanprod-2.3,2013-09-16 23:36:00,
2013-09-16 18:41:00,64.7,46.7,30.21,ESE,120,0.0,0.0,52,0.00,,,0.00,vanprod-2.3,2013-09-16 23:41:00,
2013-09-16 18:46:00,64.3,46.3,30.21,ESE,120,0.0,0.0,52,0.00,,,0.00,vanprod-2.3,2013-09-16 23:46:00,
2013-09-16 18:51:00,64.0,47.0,30.21,ESE,120,0.0,0.0,54,0.00,,,0.00,vanprod-2.3,2013-09-16 23:51:00,
2013-09-16 18:56:00,63.5,46.6,30.20,ESE,120,0.0,0.0,54,0.00,,,0.00,vanprod-2.3,2013-09-16 23:56:00,
2013-09-16 19:01:00,63.2,46.8,30.20,ESE,120,0.0,0.0,55,0.00,,,0.00,vanprod-2.3,2013-09-17 00:01:00,
2013-09-16 19:06:00,62.9,47.5,30.20,ESE,120,0.0,0.0,57,0.00,,,0.00,vanprod-2.3,2013-09-17 00:06:00,
2013-09-16 19:11:00,62.6,48.1,30.20,ESE,120,0.0,0.0,59,0.00,,,0.00,vanprod-2.3,2013-09-17 00:11:00,
2013-09-16 19:16:00,62.1,47.6,30.20,ESE,120,0.0,0.0,59,0.00,,,0.00,vanprod-2.3,2013-09-17 00:16:00,
2013-09-16 19:21:00,61.8,48.2,30.20,ESE,120,0.0,0.0,61,0.00,,,0.00,vanprod-2.3,2013-09-17 00:21:00,
2013-09-16 19:26:00,61.3,48.2,30.20,ESE,120,0.0,0.0,62,0.00,,,0.00,vanprod-2.3,2013-09-17 00:26:00,
2013-09-16 19:31:00,60.8,47.7,30.20,ESE,120,0.0,0.0,62,0.00,,,0.00,vanprod-2.3,2013-09-17 00:31:00,
2013-09-16 19:36:00,60.4,47.8,30.20,ESE,120,0.0,0.0,63,0.00,,,0.00,vanprod-2.3,2013-09-17 00:36:00,
2013-09-16 19:41:00,60.0,48.2,30.20,ESE,120,0.0,0.0,65,0.00,,,0.00,vanprod-2.3,2013-09-17 00:41:00,
2013-09-16 19:46:00,59.6,47.8,30.20,ESE,120,0.0,0.0,65,0.00,,,0.00,vanprod-2.3,2013-09-17 00:46:00,
2013-09-16 19:51:00,59.1,47.8,30.20,ESE,120,0.0,0.0,66,0.00,,,0.00,vanprod-2.3,2013-09-17 00:51:00,
2013-09-16 19:56:00,58.7,48.2,30.20,ESE,120,0.0,0.0,68,0.00,,,0.00,vanprod-2.3,2013-09-17 00:56:00,
2013-09-16 20:01:00,58.4,47.9,30.20,ESE,120,0.0,0.0,68,0.00,,,0.00,vanprod-2.3,2013-09-17 01:01:00,
2013-09-16 20:06:00,58.1,48.0,30.20,ESE,120,0.0,0.0,69,0.00,,,0.00,vanprod-2.3,2013-09-17 01:06:00,
2013-09-16 20:11:00,57.8,48.1,30.20,ESE,120,0.0,0.0,70,0.00,,,0.00,vanprod-2.3,2013-09-17 01:11:00,
2013-09-16 20:16:00,57.6,47.9,30.20,ESE,120,0.0,0.0,70,0.00,,,0.00,vanprod-2.3,2013-09-17 01:16:00,
2013-09-16 20:21:00,57.3,48.0,30.20,ESE,120,0.0,0.0,71,0.00,,,0.00,vanprod-2.3,2013-09-17 01:21:00,
2013-09-16 20:26:00,57.0,48.1,30.20,ESE,120,0.0,0.0,72,0.00,,,0.00,vanprod-2.3,2013-09-17 01:26:00,
2013-09-16 20:31:00,56.7,48.2,30.20,ESE,120,0.0,0.0,73,0.00,,,0.00,vanprod-2.3,2013-09-17 01:31:00,
2013-09-16 20:36:00,56.5,48.3,30.20,ESE,120,0.0,0.0,74,0.00,,,0.00,vanprod-2.3,2013-09-17 01:36:00,
2013-09-16 20:41:00,56.4,48.2,30.20,ESE,120,0.0,0.0,74,0.00,,,0.00,vanprod-2.3,2013-09-17 01:41:00,
2013-09-16 20:46:00,56.2,48.4,30.20,ESE,120,0.0,0.0,75,0.00,,,0.00,vanprod-2.3,2013-09-17 01:46:00,
2013-09-16 20:51:00,56.1,48.3,30.20,ESE,120,0.0,0.0,75,0.00,,,0.00,vanprod-2.3,2013-09-17 01:51:00,
2013-09-16 20:56:00,56.0,48.6,30.20,ESE,120,0.0,0.0,76,0.00,,,0.00,vanprod-2.3,2013-09-17 01:56:00,
2013-09-16 21:01:00,55.7,48.3,30.20,ESE,120,0.0,0.0,76,0.00,,,0.00,vanprod-2.3,2013-09-17 02:01:00,
2013-09-16 21:06:00,55.5,48.4,30.20,ESE,120,0.0,0.0,77,0.00,,,0.00,vanprod-2.3,2013-09-17 02:06:00,
2013-09-16 21:11:00,55.4,48.7,30.20,ESE,120,0.0,0.0,78,0.00,,,0.00,vanprod-2.3,2013-09-17 02:11:00,
2013-09-16 21:16:00,55.2,48.5,30.20,ESE,120,0.0,0.0,78,0.00,,,0.00,vanprod-2.3,2013-09-17 02:16:00,
2013-09-16 21:21:00,55.1,48.7,30.20,ESE,120,0.0,0.0,79,0.00,,,0.00,vanprod-2.3,2013-09-17 02:21:00,
2013-09-16 21:26:00,54.9,48.5,30.20,ESE,120,0.0,0.0,79,0.00,,,0.00,vanprod-2.3,2013-09-17 02:26:00,
2013-09-16 21:31:00,54.8,48.8,30.20,ESE,120,0.0,0.0,80,0.00,,,0.00,vanprod-2.3,2013-09-17 02:31:00,
2013-09-16 21:36:00,54.6,48.9,30.20,ESE,120,0.0,0.0,81,0.00,,,0.00,vanprod-2.3,2013-09-17 02:36:00,
2013-09-16 21:41:00,54.6,48.9,30.20,ESE,120,0.0,0.0,81,0.00,,,0.00,vanprod-2.3,2013-09-17 02:41:00,
2013-09-16 21:46:00,54.5,49.1,30.20,ESE,120,0.0,0.0,82,0.00,,,0.00,vanprod-2.3,2013-09-17 02:46:00,
2013-09-16 21:51:00,54.3,48.9,30.20,ESE,120,0.0,0.0,82,0.00,,,0.00,vanprod-2.3,2013-09-17 02:51:00,
2013-09-16 21:56:00,54.2,49.2,30.20,ESE,120,0.0,0.0,83,0.00,,,0.00,vanprod-2.3,2013-09-17 02:56:00,
2013-09-16 22:01:00,54.0,49.0,30.20,ESE,120,0.0,0.0,83,0.00,,,0.00,vanprod-2.3,2013-09-17 03:01:00,
2013-09-16 22:06:00,53.9,49.2,30.19,ESE,120,0.0,0.0,84,0.00,,,0.00,vanprod-2.3,2013-09-17 03:06:00,
2013-09-16 22:11:00,53.7,49.0,30.19,ESE,120,0.0,0.0,84,0.00,,,0.00,vanprod-2.3,2013-09-17 03:11:00,
2013-09-16 22:16:00,53.7,49.3,30.19,ESE,120,0.0,0.0,85,0.00,,,0.00,vanprod-2.3,2013-09-17 03:16:00,
2013-09-16 22:21:00,53.6,49.2,30.19,ESE,120,0.0,0.0,85,0.00,,,0.00,vanprod-2.3,2013-09-17 03:21:00,
2013-09-16 22:26:00,53.4,49.3,30.19,ESE,120,0.0,0.0,86,0.00,,,0.00,vanprod-2.3,2013-09-17 03:26:00,
2013-09-16 22:31:00,53.4,49.3,30.19,ESE,120,0.0,0.0,86,0.00,,,0.00,vanprod-2.3,2013-09-17 03:31:00,
2013-09-16 22:36:00,53.4,49.3,30.19,ESE,120,0.0,0.0,86,0.00,,,0.00,vanprod-2.3,2013-09-17 03:36:00,
2013-09-16 22:41:00,53.3,49.5,30.19,ESE,120,0.0,0.0,87,0.00,,,0.00,vanprod-2.3,2013-09-17 03:41:00,
2013-09-16 22:46:00,53.3,49.5,30.19,ESE,120,0.0,0.0,87,0.00,,,0.00,vanprod-2.3,2013-09-17 03:46:00,
2013-09-16 22:51:00,53.4,49.6,30.19,ESE,120,0.0,0.0,87,0.00,,,0.00,vanprod-2.3,2013-09-17 03:51:00,
2013-09-16 22:56:00,53.4,49.6,30.19,ESE,120,1.0,0.0,87,0.00,,,0.00,vanprod-2.3,2013-09-17 03:56:00,
2013-09-16 23:01:00,53.4,49.6,30.19,ESE,120,0.0,0.0,87,0.00,,,0.00,vanprod-2.3,2013-09-17 04:01:00,
2013-09-16 23:06:00,53.6,49.8,30.19,ESE,120,0.0,0.0,87,0.00,,,0.00,vanprod-2.3,2013-09-17 04:06:00,
2013-09-16 23:11:00,53.6,49.8,30.19,ESE,120,0.0,0.0,87,0.00,,,0.00,vanprod-2.3,2013-09-17 04:11:00,
2013-09-16 23:16:00,53.6,49.8,30.19,ESE,120,0.0,0.0,87,0.00,,,0.00,vanprod-2.3,2013-09-17 04:16:00,
2013-09-16 23:21:00,53.7,49.9,30.19,ESE,120,0.0,0.0,87,0.00,,,0.00,vanprod-2.3,2013-09-17 04:21:00,
2013-09-16 23:26:00,53.7,49.9,30.19,SE,126,0.0,0.0,87,0.00,,,0.00,vanprod-2.3,2013-09-17 04:26:00,
2013-09-16 23:31:00,53.9,50.1,30.20,SE,126,1.0,2.0,87,0.00,,,0.00,vanprod-2.3,2013-09-17 04:31:00,
2013-09-16 23:36:00,54.0,50.2,30.19,SE,126,2.0,5.0,87,0.00,,,0.00,vanprod-2.3,2013-09-17 04:36:00,
2013-09-16 23:41:00,54.0,50.2,30.19,SE,126,0.0,1.0,87,0.00,,,0.00,vanprod-2.3,2013-09-17 04:41:00,
2013-09-16 23:46:00,54.0,50.2,30.19,SE,126,1.0,3.0,87,0.00,,,0.00,vanprod-2.3,2013-09-17 04:46:00,
2013-09-16 23:51:00,54.0,50.2,30.19,SE,126,2.0,2.0,87,0.00,,,0.00,vanprod-2.3,2013-09-17 04:51:00,
2013-09-16 23:56:00,53.9,50.1,30.19,SE,126,0.0,1.0,87,0.00,,,0.00,vanprod-2.3,2013-09-17 04:56:00,